sensor_id;sensor_type;location;lat;lon;timestamp;P1;durP1;ratioP1;P2;durP2;ratioP2
4986;SDS011;12674;51.500;7.552;2023-11-19T00:01:48;3.70;;;0.90;;
4986;SDS011;12674;51.500;7.552;2023-11-19T00:03:51;1.33;;;0.70;;
4986;SDS011;12674;51.500;7.552;2023-11-19T00:05:55;1.27;;;0.80;;
4986;SDS011;12674;51.500;7.552;2023-11-19T00:07:58;1.03;;;0.93;;
4986;SDS011;12674;51.500;7.552;2023-11-19T00:10:03;0.70;;;0.60;;
4986;SDS011;12674;51.500;7.552;2023-11-19T00:12:08;1.07;;;0.77;;
4986;SDS011;12674;51.500;7.552;2023-11-19T00:14:11;1.83;;;0.83;;
4986;SDS011;12674;51.500;7.552;2023-11-19T00:16:15;2.30;;;0.87;;
4986;SDS011;12674;51.500;7.552;2023-11-19T00:18:18;3.10;;;0.80;;
4986;SDS011;12674;51.500;7.552;2023-11-19T00:20:22;0.63;;;0.60;;
4986;SDS011;12674;51.500;7.552;2023-11-19T00:22:26;1.50;;;0.60;;
4986;SDS011;12674;51.500;7.552;2023-11-19T00:24:33;2.53;;;0.90;;
4986;SDS011;12674;51.500;7.552;2023-11-19T00:26:37;2.97;;;0.93;;
4986;SDS011;12674;51.500;7.552;2023-11-19T00:28:40;1.00;;;0.83;;
4986;SDS011;12674;51.500;7.552;2023-11-19T00:30:44;1.03;;;0.80;;
4986;SDS011;12674;51.500;7.552;2023-11-19T00:32:47;1.33;;;0.70;;
4986;SDS011;12674;51.500;7.552;2023-11-19T00:34:51;0.80;;;0.70;;
4986;SDS011;12674;51.500;7.552;2023-11-19T00:36:54;2.50;;;0.80;;
4986;SDS011;12674;51.500;7.552;2023-11-19T00:38:57;0.83;;;0.80;;
4986;SDS011;12674;51.500;7.552;2023-11-19T00:41:00;3.20;;;0.70;;
4986;SDS011;12674;51.500;7.552;2023-11-19T00:43:05;0.83;;;0.83;;
4986;SDS011;12674;51.500;7.552;2023-11-19T00:45:09;2.60;;;0.83;;
4986;SDS011;12674;51.500;7.552;2023-11-19T00:47:13;0.97;;;0.90;;
4986;SDS011;12674;51.500;7.552;2023-11-19T00:49:16;1.83;;;0.80;;
4986;SDS011;12674;51.500;7.552;2023-11-19T00:51:18;3.10;;;0.77;;
4986;SDS011;12674;51.500;7.552;2023-11-19T00:53:21;1.37;;;0.83;;
4986;SDS011;12674;51.500;7.552;2023-11-19T00:55:24;2.50;;;0.77;;
4986;SDS011;12674;51.500;7.552;2023-11-19T00:57:28;2.17;;;0.87;;
4986;SDS011;12674;51.500;7.552;2023-11-19T00:59:31;1.00;;;0.80;;
4986;SDS011;12674;51.500;7.552;2023-11-19T01:01:35;1.97;;;1.20;;
4986;SDS011;12674;51.500;7.552;2023-11-19T01:03:38;2.10;;;0.90;;
4986;SDS011;12674;51.500;7.552;2023-11-19T01:05:41;1.20;;;0.80;;
4986;SDS011;12674;51.500;7.552;2023-11-19T01:07:44;1.63;;;1.20;;
4986;SDS011;12674;51.500;7.552;2023-11-19T01:09:46;2.43;;;1.20;;
4986;SDS011;12674;51.500;7.552;2023-11-19T01:11:49;3.03;;;1.20;;
4986;SDS011;12674;51.500;7.552;2023-11-19T01:13:52;1.63;;;1.20;;
4986;SDS011;12674;51.500;7.552;2023-11-19T01:15:56;2.47;;;1.20;;
4986;SDS011;12674;51.500;7.552;2023-11-19T01:17:59;1.47;;;1.20;;
4986;SDS011;12674;51.500;7.552;2023-11-19T01:20:03;1.63;;;1.10;;
4986;SDS011;12674;51.500;7.552;2023-11-19T01:22:08;2.10;;;1.40;;
4986;SDS011;12674;51.500;7.552;2023-11-19T01:24:11;3.23;;;1.77;;
4986;SDS011;12674;51.500;7.552;2023-11-19T01:26:14;1.90;;;1.10;;
4986;SDS011;12674;51.500;7.552;2023-11-19T01:28:19;2.60;;;1.50;;
4986;SDS011;12674;51.500;7.552;2023-11-19T01:30:22;2.30;;;1.27;;
4986;SDS011;12674;51.500;7.552;2023-11-19T01:32:26;1.77;;;1.50;;
4986;SDS011;12674;51.500;7.552;2023-11-19T01:34:29;2.07;;;1.60;;
4986;SDS011;12674;51.500;7.552;2023-11-19T01:36:32;6.07;;;1.50;;
4986;SDS011;12674;51.500;7.552;2023-11-19T01:38:37;1.70;;;1.60;;
4986;SDS011;12674;51.500;7.552;2023-11-19T01:40:42;3.13;;;1.37;;
4986;SDS011;12674;51.500;7.552;2023-11-19T01:42:46;5.90;;;1.90;;
4986;SDS011;12674;51.500;7.552;2023-11-19T01:44:56;1.93;;;1.73;;
4986;SDS011;12674;51.500;7.552;2023-11-19T01:47:01;1.40;;;1.30;;
4986;SDS011;12674;51.500;7.552;2023-11-19T01:49:07;3.77;;;1.60;;
4986;SDS011;12674;51.500;7.552;2023-11-19T01:51:13;3.07;;;1.60;;
4986;SDS011;12674;51.500;7.552;2023-11-19T01:53:20;2.60;;;1.43;;
4986;SDS011;12674;51.500;7.552;2023-11-19T01:55:25;2.80;;;1.10;;
4986;SDS011;12674;51.500;7.552;2023-11-19T01:57:33;1.83;;;1.63;;
4986;SDS011;12674;51.500;7.552;2023-11-19T01:59:38;2.63;;;1.87;;
4986;SDS011;12674;51.500;7.552;2023-11-19T02:01:43;1.53;;;1.10;;
4986;SDS011;12674;51.500;7.552;2023-11-19T02:03:47;2.43;;;1.20;;
4986;SDS011;12674;51.500;7.552;2023-11-19T02:05:52;3.03;;;1.50;;
4986;SDS011;12674;51.500;7.552;2023-11-19T02:07:56;1.10;;;1.00;;
4986;SDS011;12674;51.500;7.552;2023-11-19T02:10:00;2.10;;;1.10;;
4986;SDS011;12674;51.500;7.552;2023-11-19T02:12:09;2.10;;;1.10;;
4986;SDS011;12674;51.500;7.552;2023-11-19T02:14:17;2.97;;;1.20;;
4986;SDS011;12674;51.500;7.552;2023-11-19T02:16:24;2.40;;;1.30;;
4986;SDS011;12674;51.500;7.552;2023-11-19T02:18:30;2.70;;;1.50;;
4986;SDS011;12674;51.500;7.552;2023-11-19T02:20:35;2.03;;;1.33;;
4986;SDS011;12674;51.500;7.552;2023-11-19T02:22:38;1.33;;;1.10;;
4986;SDS011;12674;51.500;7.552;2023-11-19T02:24:43;1.30;;;1.20;;
4986;SDS011;12674;51.500;7.552;2023-11-19T02:26:51;2.93;;;1.20;;
4986;SDS011;12674;51.500;7.552;2023-11-19T02:29:00;0.87;;;0.83;;
4986;SDS011;12674;51.500;7.552;2023-11-19T02:31:08;2.13;;;1.00;;
4986;SDS011;12674;51.500;7.552;2023-11-19T02:33:12;3.40;;;1.20;;
4986;SDS011;12674;51.500;7.552;2023-11-19T02:35:16;1.80;;;1.60;;
4986;SDS011;12674;51.500;7.552;2023-11-19T02:37:19;4.07;;;1.30;;
4986;SDS011;12674;51.500;7.552;2023-11-19T02:39:23;4.47;;;1.43;;
4986;SDS011;12674;51.500;7.552;2023-11-19T02:41:28;9.90;;;1.80;;
4986;SDS011;12674;51.500;7.552;2023-11-19T02:43:31;3.23;;;1.90;;
4986;SDS011;12674;51.500;7.552;2023-11-19T02:45:36;2.60;;;1.37;;
4986;SDS011;12674;51.500;7.552;2023-11-19T02:47:40;8.07;;;1.80;;
4986;SDS011;12674;51.500;7.552;2023-11-19T02:49:44;15.20;;;2.00;;
4986;SDS011;12674;51.500;7.552;2023-11-19T02:51:48;7.43;;;2.00;;
4986;SDS011;12674;51.500;7.552;2023-11-19T02:53:51;8.53;;;1.87;;
4986;SDS011;12674;51.500;7.552;2023-11-19T02:55:54;5.90;;;1.70;;
4986;SDS011;12674;51.500;7.552;2023-11-19T02:58:02;12.90;;;2.27;;
4986;SDS011;12674;51.500;7.552;2023-11-19T03:00:11;10.50;;;1.80;;
4986;SDS011;12674;51.500;7.552;2023-11-19T03:02:16;13.70;;;2.20;;
4986;SDS011;12674;51.500;7.552;2023-11-19T03:04:19;7.63;;;1.97;;
4986;SDS011;12674;51.500;7.552;2023-11-19T03:06:24;12.60;;;1.90;;
4986;SDS011;12674;51.500;7.552;2023-11-19T03:08:28;12.53;;;2.10;;
4986;SDS011;12674;51.500;7.552;2023-11-19T03:10:31;11.00;;;2.03;;
4986;SDS011;12674;51.500;7.552;2023-11-19T03:12:36;7.40;;;1.93;;
4986;SDS011;12674;51.500;7.552;2023-11-19T03:14:39;8.40;;;2.30;;
4986;SDS011;12674;51.500;7.552;2023-11-19T03:16:44;11.83;;;2.37;;
4986;SDS011;12674;51.500;7.552;2023-11-19T03:18:49;11.53;;;2.13;;
4986;SDS011;12674;51.500;7.552;2023-11-19T03:20:52;7.40;;;1.80;;
4986;SDS011;12674;51.500;7.552;2023-11-19T03:22:55;8.40;;;2.53;;
4986;SDS011;12674;51.500;7.552;2023-11-19T03:24:59;10.40;;;2.10;;
4986;SDS011;12674;51.500;7.552;2023-11-19T03:27:02;16.03;;;2.80;;
4986;SDS011;12674;51.500;7.552;2023-11-19T03:29:06;10.00;;;3.30;;
4986;SDS011;12674;51.500;7.552;2023-11-19T03:31:10;12.30;;;2.50;;
4986;SDS011;12674;51.500;7.552;2023-11-19T03:33:13;13.50;;;2.73;;
4986;SDS011;12674;51.500;7.552;2023-11-19T03:35:18;16.17;;;2.67;;
4986;SDS011;12674;51.500;7.552;2023-11-19T03:37:22;16.37;;;2.70;;
4986;SDS011;12674;51.500;7.552;2023-11-19T03:39:26;11.63;;;2.30;;
4986;SDS011;12674;51.500;7.552;2023-11-19T03:41:29;8.67;;;2.30;;
4986;SDS011;12674;51.500;7.552;2023-11-19T03:43:42;15.73;;;2.50;;
4986;SDS011;12674;51.500;7.552;2023-11-19T03:45:47;13.97;;;2.83;;
4986;SDS011;12674;51.500;7.552;2023-11-19T03:47:50;16.53;;;3.00;;
4986;SDS011;12674;51.500;7.552;2023-11-19T03:49:54;14.00;;;2.53;;
4986;SDS011;12674;51.500;7.552;2023-11-19T03:51:58;14.50;;;2.63;;
4986;SDS011;12674;51.500;7.552;2023-11-19T03:54:03;25.20;;;3.80;;
4986;SDS011;12674;51.500;7.552;2023-11-19T03:56:09;10.67;;;2.50;;
4986;SDS011;12674;51.500;7.552;2023-11-19T03:58:12;20.23;;;3.63;;
4986;SDS011;12674;51.500;7.552;2023-11-19T04:00:20;15.77;;;3.60;;
4986;SDS011;12674;51.500;7.552;2023-11-19T04:02:24;19.70;;;3.00;;
4986;SDS011;12674;51.500;7.552;2023-11-19T04:04:30;12.57;;;2.80;;
4986;SDS011;12674;51.500;7.552;2023-11-19T04:06:36;22.90;;;3.60;;
4986;SDS011;12674;51.500;7.552;2023-11-19T04:08:42;11.40;;;3.07;;
4986;SDS011;12674;51.500;7.552;2023-11-19T04:10:46;18.93;;;3.70;;
4986;SDS011;12674;51.500;7.552;2023-11-19T04:12:50;15.77;;;3.20;;
4986;SDS011;12674;51.500;7.552;2023-11-19T04:14:52;14.50;;;3.27;;
4986;SDS011;12674;51.500;7.552;2023-11-19T04:16:58;19.43;;;3.03;;
4986;SDS011;12674;51.500;7.552;2023-11-19T04:19:01;28.50;;;4.10;;
4986;SDS011;12674;51.500;7.552;2023-11-19T04:21:05;20.23;;;4.23;;
4986;SDS011;12674;51.500;7.552;2023-11-19T04:23:09;14.83;;;3.20;;
4986;SDS011;12674;51.500;7.552;2023-11-19T04:25:14;15.73;;;3.27;;
4986;SDS011;12674;51.500;7.552;2023-11-19T04:27:18;16.00;;;3.27;;
4986;SDS011;12674;51.500;7.552;2023-11-19T04:29:21;25.57;;;3.37;;
4986;SDS011;12674;51.500;7.552;2023-11-19T04:31:28;17.83;;;3.70;;
4986;SDS011;12674;51.500;7.552;2023-11-19T04:33:32;27.10;;;4.80;;
4986;SDS011;12674;51.500;7.552;2023-11-19T04:35:34;23.47;;;4.20;;
4986;SDS011;12674;51.500;7.552;2023-11-19T04:37:38;23.57;;;3.60;;
4986;SDS011;12674;51.500;7.552;2023-11-19T04:39:41;22.30;;;4.43;;
4986;SDS011;12674;51.500;7.552;2023-11-19T04:41:49;19.63;;;3.77;;
4986;SDS011;12674;51.500;7.552;2023-11-19T04:43:53;20.37;;;3.63;;
4986;SDS011;12674;51.500;7.552;2023-11-19T04:45:55;25.03;;;4.37;;
4986;SDS011;12674;51.500;7.552;2023-11-19T04:47:59;19.93;;;4.13;;
4986;SDS011;12674;51.500;7.552;2023-11-19T04:50:02;15.13;;;4.20;;
4986;SDS011;12674;51.500;7.552;2023-11-19T04:52:05;22.00;;;3.30;;
4986;SDS011;12674;51.500;7.552;2023-11-19T04:54:07;21.13;;;3.33;;
4986;SDS011;12674;51.500;7.552;2023-11-19T04:56:11;21.90;;;3.70;;
4986;SDS011;12674;51.500;7.552;2023-11-19T04:58:16;28.80;;;4.10;;
4986;SDS011;12674;51.500;7.552;2023-11-19T05:00:19;21.73;;;3.73;;
4986;SDS011;12674;51.500;7.552;2023-11-19T05:02:24;17.87;;;3.43;;
4986;SDS011;12674;51.500;7.552;2023-11-19T05:04:27;20.00;;;4.17;;
4986;SDS011;12674;51.500;7.552;2023-11-19T05:06:29;40.70;;;4.77;;
4986;SDS011;12674;51.500;7.552;2023-11-19T05:08:33;20.13;;;3.23;;
4986;SDS011;12674;51.500;7.552;2023-11-19T05:10:36;22.83;;;4.17;;
4986;SDS011;12674;51.500;7.552;2023-11-19T05:12:39;24.87;;;4.07;;
4986;SDS011;12674;51.500;7.552;2023-11-19T05:14:44;20.90;;;4.63;;
4986;SDS011;12674;51.500;7.552;2023-11-19T05:16:51;27.20;;;4.80;;
4986;SDS011;12674;51.500;7.552;2023-11-19T05:18:54;22.63;;;3.67;;
4986;SDS011;12674;51.500;7.552;2023-11-19T05:20:57;25.93;;;5.00;;
4986;SDS011;12674;51.500;7.552;2023-11-19T05:23:00;25.83;;;4.67;;
4986;SDS011;12674;51.500;7.552;2023-11-19T05:25:03;22.97;;;4.00;;
4986;SDS011;12674;51.500;7.552;2023-11-19T05:27:07;28.77;;;5.43;;
4986;SDS011;12674;51.500;7.552;2023-11-19T05:29:10;31.43;;;4.10;;
4986;SDS011;12674;51.500;7.552;2023-11-19T05:31:15;28.57;;;4.77;;
4986;SDS011;12674;51.500;7.552;2023-11-19T05:33:18;30.47;;;6.33;;
4986;SDS011;12674;51.500;7.552;2023-11-19T05:35:21;22.10;;;3.70;;
4986;SDS011;12674;51.500;7.552;2023-11-19T05:37:24;29.33;;;5.50;;
4986;SDS011;12674;51.500;7.552;2023-11-19T05:39:27;25.00;;;4.80;;
4986;SDS011;12674;51.500;7.552;2023-11-19T05:41:30;26.60;;;4.40;;
4986;SDS011;12674;51.500;7.552;2023-11-19T05:43:33;24.70;;;5.27;;
4986;SDS011;12674;51.500;7.552;2023-11-19T05:45:38;33.10;;;4.77;;
4986;SDS011;12674;51.500;7.552;2023-11-19T05:47:42;31.93;;;5.70;;
4986;SDS011;12674;51.500;7.552;2023-11-19T05:49:45;39.23;;;5.50;;
4986;SDS011;12674;51.500;7.552;2023-11-19T05:51:47;23.93;;;4.40;;
4986;SDS011;12674;51.500;7.552;2023-11-19T05:53:50;38.00;;;4.90;;
4986;SDS011;12674;51.500;7.552;2023-11-19T05:55:53;29.33;;;5.00;;
4986;SDS011;12674;51.500;7.552;2023-11-19T05:57:57;40.40;;;6.10;;
4986;SDS011;12674;51.500;7.552;2023-11-19T06:00:00;31.40;;;4.53;;
4986;SDS011;12674;51.500;7.552;2023-11-19T06:02:11;32.00;;;5.13;;
4986;SDS011;12674;51.500;7.552;2023-11-19T06:04:16;28.00;;;4.60;;
4986;SDS011;12674;51.500;7.552;2023-11-19T06:06:19;35.67;;;5.40;;
4986;SDS011;12674;51.500;7.552;2023-11-19T06:08:21;28.00;;;5.23;;
4986;SDS011;12674;51.500;7.552;2023-11-19T06:10:24;29.37;;;4.90;;
4986;SDS011;12674;51.500;7.552;2023-11-19T06:12:32;28.73;;;4.80;;
4986;SDS011;12674;51.500;7.552;2023-11-19T06:14:39;23.53;;;4.87;;
4986;SDS011;12674;51.500;7.552;2023-11-19T06:16:42;23.00;;;4.77;;
4986;SDS011;12674;51.500;7.552;2023-11-19T06:18:45;34.43;;;5.27;;
4986;SDS011;12674;51.500;7.552;2023-11-19T06:20:49;25.17;;;4.63;;
4986;SDS011;12674;51.500;7.552;2023-11-19T06:22:52;32.87;;;5.60;;
4986;SDS011;12674;51.500;7.552;2023-11-19T06:24:54;28.00;;;5.07;;
4986;SDS011;12674;51.500;7.552;2023-11-19T06:26:57;32.03;;;6.10;;
4986;SDS011;12674;51.500;7.552;2023-11-19T06:29:00;33.23;;;5.47;;
4986;SDS011;12674;51.500;7.552;2023-11-19T06:31:03;32.83;;;4.93;;
4986;SDS011;12674;51.500;7.552;2023-11-19T06:33:06;29.37;;;5.50;;
4986;SDS011;12674;51.500;7.552;2023-11-19T06:35:09;35.50;;;5.43;;
4986;SDS011;12674;51.500;7.552;2023-11-19T06:37:13;30.67;;;5.70;;
4986;SDS011;12674;51.500;7.552;2023-11-19T06:39:16;24.00;;;4.90;;
4986;SDS011;12674;51.500;7.552;2023-11-19T06:41:19;21.80;;;4.27;;
4986;SDS011;12674;51.500;7.552;2023-11-19T06:43:22;25.63;;;4.30;;
4986;SDS011;12674;51.500;7.552;2023-11-19T06:45:25;22.30;;;5.00;;
4986;SDS011;12674;51.500;7.552;2023-11-19T06:47:28;37.63;;;6.70;;
4986;SDS011;12674;51.500;7.552;2023-11-19T06:49:32;17.03;;;4.33;;
4986;SDS011;12674;51.500;7.552;2023-11-19T06:51:35;32.07;;;5.13;;
4986;SDS011;12674;51.500;7.552;2023-11-19T06:53:39;21.43;;;4.93;;
4986;SDS011;12674;51.500;7.552;2023-11-19T06:55:42;38.07;;;5.60;;
4986;SDS011;12674;51.500;7.552;2023-11-19T06:57:45;32.20;;;5.07;;
4986;SDS011;12674;51.500;7.552;2023-11-19T06:59:48;25.80;;;4.90;;
4986;SDS011;12674;51.500;7.552;2023-11-19T07:01:51;25.40;;;4.30;;
4986;SDS011;12674;51.500;7.552;2023-11-19T07:03:54;34.07;;;5.53;;
4986;SDS011;12674;51.500;7.552;2023-11-19T07:05:59;23.90;;;4.73;;
4986;SDS011;12674;51.500;7.552;2023-11-19T07:08:02;31.43;;;4.93;;
4986;SDS011;12674;51.500;7.552;2023-11-19T07:10:08;30.23;;;5.13;;
4986;SDS011;12674;51.500;7.552;2023-11-19T07:12:11;30.00;;;5.00;;
4986;SDS011;12674;51.500;7.552;2023-11-19T07:14:14;33.20;;;5.17;;
4986;SDS011;12674;51.500;7.552;2023-11-19T07:16:18;28.40;;;5.00;;
4986;SDS011;12674;51.500;7.552;2023-11-19T07:18:23;30.23;;;5.83;;
4986;SDS011;12674;51.500;7.552;2023-11-19T07:20:26;35.20;;;5.23;;
4986;SDS011;12674;51.500;7.552;2023-11-19T07:22:29;28.70;;;5.07;;
4986;SDS011;12674;51.500;7.552;2023-11-19T07:24:32;37.60;;;6.57;;
4986;SDS011;12674;51.500;7.552;2023-11-19T07:26:39;26.40;;;4.93;;
4986;SDS011;12674;51.500;7.552;2023-11-19T07:28:46;30.33;;;5.23;;
4986;SDS011;12674;51.500;7.552;2023-11-19T07:30:48;26.83;;;4.50;;
4986;SDS011;12674;51.500;7.552;2023-11-19T07:32:51;25.77;;;5.07;;
4986;SDS011;12674;51.500;7.552;2023-11-19T07:34:54;25.93;;;4.93;;
4986;SDS011;12674;51.500;7.552;2023-11-19T07:36:57;33.40;;;5.70;;
4986;SDS011;12674;51.500;7.552;2023-11-19T07:39:04;28.33;;;5.67;;
4986;SDS011;12674;51.500;7.552;2023-11-19T07:41:06;28.97;;;4.87;;
4986;SDS011;12674;51.500;7.552;2023-11-19T07:43:12;21.07;;;5.07;;
4986;SDS011;12674;51.500;7.552;2023-11-19T07:45:15;35.30;;;6.20;;
4986;SDS011;12674;51.500;7.552;2023-11-19T07:47:19;20.13;;;4.30;;
4986;SDS011;12674;51.500;7.552;2023-11-19T07:49:25;25.93;;;5.10;;
4986;SDS011;12674;51.500;7.552;2023-11-19T07:51:28;20.23;;;4.73;;
4986;SDS011;12674;51.500;7.552;2023-11-19T07:53:31;30.10;;;5.07;;
4986;SDS011;12674;51.500;7.552;2023-11-19T07:55:34;44.53;;;6.23;;
4986;SDS011;12674;51.500;7.552;2023-11-19T07:57:37;33.67;;;6.20;;
4986;SDS011;12674;51.500;7.552;2023-11-19T07:59:41;32.17;;;5.13;;
4986;SDS011;12674;51.500;7.552;2023-11-19T08:01:44;32.70;;;5.53;;
4986;SDS011;12674;51.500;7.552;2023-11-19T08:03:47;35.83;;;5.60;;
4986;SDS011;12674;51.500;7.552;2023-11-19T08:05:55;30.50;;;5.43;;
4986;SDS011;12674;51.500;7.552;2023-11-19T08:07:57;32.30;;;4.67;;
4986;SDS011;12674;51.500;7.552;2023-11-19T08:10:00;28.53;;;4.63;;
4986;SDS011;12674;51.500;7.552;2023-11-19T08:12:03;26.37;;;5.00;;
4986;SDS011;12674;51.500;7.552;2023-11-19T08:14:07;37.30;;;5.50;;
4986;SDS011;12674;51.500;7.552;2023-11-19T08:16:11;28.93;;;5.10;;
4986;SDS011;12674;51.500;7.552;2023-11-19T08:18:14;27.43;;;5.17;;
4986;SDS011;12674;51.500;7.552;2023-11-19T08:20:17;26.33;;;5.40;;
4986;SDS011;12674;51.500;7.552;2023-11-19T08:22:20;31.97;;;5.53;;
4986;SDS011;12674;51.500;7.552;2023-11-19T08:24:23;25.00;;;5.03;;
4986;SDS011;12674;51.500;7.552;2023-11-19T08:26:26;34.50;;;5.70;;
4986;SDS011;12674;51.500;7.552;2023-11-19T08:28:29;26.33;;;6.03;;
4986;SDS011;12674;51.500;7.552;2023-11-19T08:30:32;39.73;;;4.73;;
4986;SDS011;12674;51.500;7.552;2023-11-19T08:32:36;29.83;;;5.97;;
4986;SDS011;12674;51.500;7.552;2023-11-19T08:34:40;25.60;;;5.13;;
4986;SDS011;12674;51.500;7.552;2023-11-19T08:36:43;27.20;;;4.77;;
4986;SDS011;12674;51.500;7.552;2023-11-19T08:38:47;30.80;;;5.87;;
4986;SDS011;12674;51.500;7.552;2023-11-19T08:40:50;29.57;;;5.80;;
4986;SDS011;12674;51.500;7.552;2023-11-19T08:42:53;44.17;;;6.27;;
4986;SDS011;12674;51.500;7.552;2023-11-19T08:44:57;30.80;;;5.25;;
4986;SDS011;12674;51.500;7.552;2023-11-19T08:47:00;27.77;;;5.50;;
4986;SDS011;12674;51.500;7.552;2023-11-19T08:49:04;35.03;;;5.70;;
4986;SDS011;12674;51.500;7.552;2023-11-19T08:51:09;33.47;;;5.77;;
4986;SDS011;12674;51.500;7.552;2023-11-19T08:53:12;35.27;;;6.17;;
4986;SDS011;12674;51.500;7.552;2023-11-19T08:55:15;28.17;;;5.50;;
4986;SDS011;12674;51.500;7.552;2023-11-19T08:57:18;29.20;;;5.30;;
4986;SDS011;12674;51.500;7.552;2023-11-19T08:59:21;40.33;;;5.83;;
4986;SDS011;12674;51.500;7.552;2023-11-19T09:01:24;42.70;;;5.97;;
4986;SDS011;12674;51.500;7.552;2023-11-19T09:03:27;37.77;;;7.10;;
4986;SDS011;12674;51.500;7.552;2023-11-19T09:05:33;29.30;;;6.03;;
4986;SDS011;12674;51.500;7.552;2023-11-19T09:07:35;35.67;;;6.43;;
4986;SDS011;12674;51.500;7.552;2023-11-19T09:09:38;32.50;;;5.53;;
4986;SDS011;12674;51.500;7.552;2023-11-19T09:11:41;31.73;;;5.27;;
4986;SDS011;12674;51.500;7.552;2023-11-19T09:13:44;36.57;;;6.67;;
4986;SDS011;12674;51.500;7.552;2023-11-19T09:15:47;28.33;;;6.33;;
4986;SDS011;12674;51.500;7.552;2023-11-19T09:17:50;37.37;;;6.77;;
4986;SDS011;12674;51.500;7.552;2023-11-19T09:19:54;36.43;;;6.37;;
4986;SDS011;12674;51.500;7.552;2023-11-19T09:21:58;30.83;;;6.43;;
4986;SDS011;12674;51.500;7.552;2023-11-19T09:24:03;30.77;;;5.13;;
4986;SDS011;12674;51.500;7.552;2023-11-19T09:26:07;37.65;;;7.28;;
4986;SDS011;12674;51.500;7.552;2023-11-19T09:28:11;38.50;;;6.40;;
4986;SDS011;12674;51.500;7.552;2023-11-19T09:30:15;38.58;;;6.25;;
4986;SDS011;12674;51.500;7.552;2023-11-19T09:32:18;47.00;;;7.53;;
4986;SDS011;12674;51.500;7.552;2023-11-19T09:34:22;26.38;;;5.63;;
4986;SDS011;12674;51.500;7.552;2023-11-19T09:36:24;44.17;;;7.90;;
4986;SDS011;12674;51.500;7.552;2023-11-19T09:38:29;29.93;;;6.17;;
4986;SDS011;12674;51.500;7.552;2023-11-19T09:40:32;32.77;;;6.60;;
4986;SDS011;12674;51.500;7.552;2023-11-19T09:42:35;35.80;;;6.80;;
4986;SDS011;12674;51.500;7.552;2023-11-19T09:44:43;37.67;;;6.30;;
4986;SDS011;12674;51.500;7.552;2023-11-19T09:46:46;30.23;;;5.77;;
4986;SDS011;12674;51.500;7.552;2023-11-19T09:48:51;34.03;;;6.73;;
4986;SDS011;12674;51.500;7.552;2023-11-19T09:50:56;33.43;;;5.83;;
4986;SDS011;12674;51.500;7.552;2023-11-19T09:52:59;26.30;;;5.18;;
4986;SDS011;12674;51.500;7.552;2023-11-19T09:55:04;46.13;;;6.57;;
4986;SDS011;12674;51.500;7.552;2023-11-19T09:57:08;31.47;;;6.23;;
4986;SDS011;12674;51.500;7.552;2023-11-19T09:59:12;31.23;;;5.10;;
4986;SDS011;12674;51.500;7.552;2023-11-19T10:01:15;32.10;;;6.37;;
4986;SDS011;12674;51.500;7.552;2023-11-19T10:03:20;32.47;;;5.97;;
4986;SDS011;12674;51.500;7.552;2023-11-19T10:05:25;34.90;;;6.47;;
4986;SDS011;12674;51.500;7.552;2023-11-19T10:07:28;34.33;;;5.73;;
4986;SDS011;12674;51.500;7.552;2023-11-19T10:09:31;35.13;;;6.27;;
4986;SDS011;12674;51.500;7.552;2023-11-19T10:11:36;29.10;;;4.93;;
4986;SDS011;12674;51.500;7.552;2023-11-19T10:13:39;29.38;;;5.30;;
4986;SDS011;12674;51.500;7.552;2023-11-19T10:15:41;31.03;;;5.53;;
4986;SDS011;12674;51.500;7.552;2023-11-19T10:17:46;26.93;;;5.70;;
4986;SDS011;12674;51.500;7.552;2023-11-19T10:19:49;39.67;;;6.43;;
4986;SDS011;12674;51.500;7.552;2023-11-19T10:21:52;37.67;;;6.80;;
4986;SDS011;12674;51.500;7.552;2023-11-19T10:23:56;28.17;;;6.23;;
4986;SDS011;12674;51.500;7.552;2023-11-19T10:26:02;26.43;;;5.23;;
4986;SDS011;12674;51.500;7.552;2023-11-19T10:28:07;29.25;;;5.70;;
4986;SDS011;12674;51.500;7.552;2023-11-19T10:30:11;39.10;;;6.30;;
4986;SDS011;12674;51.500;7.552;2023-11-19T10:32:14;38.83;;;6.18;;
4986;SDS011;12674;51.500;7.552;2023-11-19T10:34:27;31.67;;;5.57;;
4986;SDS011;12674;51.500;7.552;2023-11-19T10:36:39;28.88;;;5.75;;
4986;SDS011;12674;51.500;7.552;2023-11-19T10:38:51;28.55;;;5.22;;
4986;SDS011;12674;51.500;7.552;2023-11-19T10:40:54;36.25;;;5.38;;
4986;SDS011;12674;51.500;7.552;2023-11-19T10:43:01;33.85;;;6.28;;
4986;SDS011;12674;51.500;7.552;2023-11-19T10:45:06;37.35;;;6.30;;
4986;SDS011;12674;51.500;7.552;2023-11-19T10:47:24;36.38;;;6.05;;
4986;SDS011;12674;51.500;7.552;2023-11-19T10:49:30;29.60;;;6.03;;
4986;SDS011;12674;51.500;7.552;2023-11-19T10:51:33;29.63;;;5.63;;
4986;SDS011;12674;51.500;7.552;2023-11-19T10:53:36;23.00;;;5.18;;
4986;SDS011;12674;51.500;7.552;2023-11-19T10:55:40;32.88;;;6.38;;
4986;SDS011;12674;51.500;7.552;2023-11-19T10:57:43;21.15;;;5.05;;
4986;SDS011;12674;51.500;7.552;2023-11-19T10:59:47;43.17;;;6.30;;
4986;SDS011;12674;51.500;7.552;2023-11-19T11:01:55;34.88;;;7.50;;
4986;SDS011;12674;51.500;7.552;2023-11-19T11:03:59;35.47;;;6.55;;
4986;SDS011;12674;51.500;7.552;2023-11-19T11:06:02;30.48;;;5.57;;
4986;SDS011;12674;51.500;7.552;2023-11-19T11:08:06;32.85;;;5.45;;
4986;SDS011;12674;51.500;7.552;2023-11-19T11:10:09;27.63;;;6.10;;
4986;SDS011;12674;51.500;7.552;2023-11-19T11:12:13;24.30;;;5.55;;
4986;SDS011;12674;51.500;7.552;2023-11-19T11:14:16;36.88;;;6.50;;
4986;SDS011;12674;51.500;7.552;2023-11-19T11:16:20;40.33;;;6.55;;
4986;SDS011;12674;51.500;7.552;2023-11-19T11:18:26;31.75;;;6.15;;
4986;SDS011;12674;51.500;7.552;2023-11-19T11:20:30;30.80;;;5.78;;
4986;SDS011;12674;51.500;7.552;2023-11-19T11:22:38;34.15;;;5.85;;
4986;SDS011;12674;51.500;7.552;2023-11-19T11:25:06;45.08;;;6.63;;
4986;SDS011;12674;51.500;7.552;2023-11-19T11:27:26;32.80;;;6.43;;
4986;SDS011;12674;51.500;7.552;2023-11-19T11:29:40;32.50;;;5.30;;
4986;SDS011;12674;51.500;7.552;2023-11-19T11:31:48;32.58;;;6.72;;
4986;SDS011;12674;51.500;7.552;2023-11-19T11:34:02;30.38;;;5.78;;
4986;SDS011;12674;51.500;7.552;2023-11-19T11:36:20;34.03;;;5.72;;
4986;SDS011;12674;51.500;7.552;2023-11-19T11:38:28;38.05;;;5.85;;
4986;SDS011;12674;51.500;7.552;2023-11-19T11:40:32;31.92;;;4.93;;
4986;SDS011;12674;51.500;7.552;2023-11-19T11:42:35;31.13;;;5.28;;
4986;SDS011;12674;51.500;7.552;2023-11-19T11:47:06;32.58;;;5.32;;
4986;SDS011;12674;51.500;7.552;2023-11-19T11:49:10;29.27;;;6.27;;
4986;SDS011;12674;51.500;7.552;2023-11-19T11:51:14;23.08;;;6.32;;
4986;SDS011;12674;51.500;7.552;2023-11-19T11:53:17;32.30;;;6.00;;
4986;SDS011;12674;51.500;7.552;2023-11-19T11:55:23;27.33;;;4.45;;
4986;SDS011;12674;51.500;7.552;2023-11-19T11:57:26;24.45;;;5.53;;
4986;SDS011;12674;51.500;7.552;2023-11-19T11:59:48;24.30;;;4.95;;
4986;SDS011;12674;51.500;7.552;2023-11-19T12:01:57;27.00;;;5.18;;
4986;SDS011;12674;51.500;7.552;2023-11-19T12:04:00;24.60;;;4.68;;
4986;SDS011;12674;51.500;7.552;2023-11-19T12:06:05;24.33;;;5.47;;
4986;SDS011;12674;51.500;7.552;2023-11-19T12:08:10;23.92;;;5.00;;
4986;SDS011;12674;51.500;7.552;2023-11-19T12:10:13;28.13;;;4.50;;
4986;SDS011;12674;51.500;7.552;2023-11-19T12:12:18;24.17;;;5.35;;
4986;SDS011;12674;51.500;7.552;2023-11-19T12:17:02;27.65;;;5.03;;
4986;SDS011;12674;51.500;7.552;2023-11-19T12:19:05;26.70;;;5.10;;
4986;SDS011;12674;51.500;7.552;2023-11-19T12:21:11;18.52;;;4.68;;
4986;SDS011;12674;51.500;7.552;2023-11-19T12:23:14;37.55;;;6.38;;
4986;SDS011;12674;51.500;7.552;2023-11-19T12:25:18;34.08;;;5.43;;
4986;SDS011;12674;51.500;7.552;2023-11-19T12:27:21;29.70;;;5.50;;
4986;SDS011;12674;51.500;7.552;2023-11-19T12:29:24;28.00;;;5.00;;
4986;SDS011;12674;51.500;7.552;2023-11-19T12:31:27;22.75;;;5.13;;
4986;SDS011;12674;51.500;7.552;2023-11-19T12:33:30;27.10;;;4.85;;
4986;SDS011;12674;51.500;7.552;2023-11-19T12:35:33;23.17;;;5.35;;
4986;SDS011;12674;51.500;7.552;2023-11-19T12:37:43;28.23;;;4.68;;